sensor_id;sensor_type;location;lat;lon;timestamp;P1;durP1;ratioP1;P2;durP2;ratioP2
64653;SDS011;51065;48.884;12.598;2022-12-07T00:00:26;10.27;;;3.85;;
64653;SDS011;51065;48.884;12.598;2022-12-07T00:02:52;12.20;;;4.53;;
64653;SDS011;51065;48.884;12.598;2022-12-07T00:05:17;10.77;;;3.95;;
64653;SDS011;51065;48.884;12.598;2022-12-07T00:07:43;12.43;;;4.50;;
64653;SDS011;51065;48.884;12.598;2022-12-07T00:10:08;10.25;;;3.97;;
64653;SDS011;51065;48.884;12.598;2022-12-07T00:12:34;9.85;;;3.58;;
64653;SDS011;51065;48.884;12.598;2022-12-07T00:15:00;8.13;;;3.75;;
64653;SDS011;51065;48.884;12.598;2022-12-07T00:17:25;9.50;;;3.90;;
64653;SDS011;51065;48.884;12.598;2022-12-07T00:19:51;10.45;;;4.07;;
64653;SDS011;51065;48.884;12.598;2022-12-07T00:22:16;10.48;;;4.20;;
64653;SDS011;51065;48.884;12.598;2022-12-07T00:24:42;11.38;;;4.13;;
64653;SDS011;51065;48.884;12.598;2022-12-07T00:27:07;8.63;;;3.75;;
64653;SDS011;51065;48.884;12.598;2022-12-07T00:29:33;10.27;;;4.40;;
64653;SDS011;51065;48.884;12.598;2022-12-07T00:31:58;12.40;;;4.07;;
64653;SDS011;51065;48.884;12.598;2022-12-07T00:34:24;11.07;;;4.50;;
64653;SDS011;51065;48.884;12.598;2022-12-07T00:36:49;10.63;;;4.75;;
64653;SDS011;51065;48.884;12.598;2022-12-07T00:39:15;10.50;;;4.22;;
64653;SDS011;51065;48.884;12.598;2022-12-07T00:41:41;9.70;;;4.00;;
64653;SDS011;51065;48.884;12.598;2022-12-07T00:44:06;10.13;;;4.13;;
64653;SDS011;51065;48.884;12.598;2022-12-07T00:46:32;11.48;;;3.97;;
64653;SDS011;51065;48.884;12.598;2022-12-07T00:48:58;10.70;;;4.03;;
64653;SDS011;51065;48.884;12.598;2022-12-07T00:51:24;10.57;;;4.03;;
64653;SDS011;51065;48.884;12.598;2022-12-07T00:53:50;11.23;;;4.80;;
64653;SDS011;51065;48.884;12.598;2022-12-07T00:56:24;13.02;;;4.70;;
64653;SDS011;51065;48.884;12.598;2022-12-07T00:58:56;10.23;;;4.15;;
64653;SDS011;51065;48.884;12.598;2022-12-07T01:01:23;9.68;;;3.90;;
64653;SDS011;51065;48.884;12.598;2022-12-07T01:03:50;11.02;;;4.28;;
64653;SDS011;51065;48.884;12.598;2022-12-07T01:06:17;13.10;;;4.15;;
64653;SDS011;51065;48.884;12.598;2022-12-07T01:08:43;10.43;;;3.92;;
64653;SDS011;51065;48.884;12.598;2022-12-07T01:11:11;14.70;;;4.18;;
64653;SDS011;51065;48.884;12.598;2022-12-07T01:13:39;13.38;;;4.55;;
64653;SDS011;51065;48.884;12.598;2022-12-07T01:16:05;14.27;;;4.75;;
64653;SDS011;51065;48.884;12.598;2022-12-07T01:18:32;10.95;;;4.57;;
64653;SDS011;51065;48.884;12.598;2022-12-07T01:23:30;10.05;;;4.45;;
64653;SDS011;51065;48.884;12.598;2022-12-07T01:25:57;12.13;;;4.55;;
64653;SDS011;51065;48.884;12.598;2022-12-07T01:28:24;10.10;;;3.78;;
64653;SDS011;51065;48.884;12.598;2022-12-07T01:30:54;11.90;;;4.00;;
64653;SDS011;51065;48.884;12.598;2022-12-07T01:33:25;11.52;;;4.60;;
64653;SDS011;51065;48.884;12.598;2022-12-07T01:36:19;11.65;;;4.25;;
64653;SDS011;51065;48.884;12.598;2022-12-07T01:38:59;9.55;;;4.00;;
64653;SDS011;51065;48.884;12.598;2022-12-07T01:41:27;9.43;;;3.95;;
64653;SDS011;51065;48.884;12.598;2022-12-07T01:44:12;10.98;;;4.30;;
64653;SDS011;51065;48.884;12.598;2022-12-07T01:46:40;10.02;;;4.05;;
64653;SDS011;51065;48.884;12.598;2022-12-07T01:49:08;11.90;;;4.35;;
64653;SDS011;51065;48.884;12.598;2022-12-07T01:51:37;11.05;;;4.38;;
64653;SDS011;51065;48.884;12.598;2022-12-07T01:54:07;10.32;;;4.07;;
64653;SDS011;51065;48.884;12.598;2022-12-07T01:56:35;10.27;;;4.07;;
64653;SDS011;51065;48.884;12.598;2022-12-07T01:59:02;11.50;;;4.32;;
64653;SDS011;51065;48.884;12.598;2022-12-07T02:01:28;10.02;;;4.13;;
64653;SDS011;51065;48.884;12.598;2022-12-07T02:03:54;8.80;;;3.67;;
64653;SDS011;51065;48.884;12.598;2022-12-07T02:06:21;8.98;;;3.50;;
64653;SDS011;51065;48.884;12.598;2022-12-07T02:08:49;11.00;;;4.00;;
64653;SDS011;51065;48.884;12.598;2022-12-07T02:11:15;7.13;;;3.50;;
64653;SDS011;51065;48.884;12.598;2022-12-07T02:13:41;9.20;;;3.80;;
64653;SDS011;51065;48.884;12.598;2022-12-07T02:19:03;11.52;;;4.53;;
64653;SDS011;51065;48.884;12.598;2022-12-07T02:24:45;8.93;;;3.85;;
64653;SDS011;51065;48.884;12.598;2022-12-07T02:27:18;10.25;;;3.67;;
64653;SDS011;51065;48.884;12.598;2022-12-07T02:30:14;9.45;;;4.00;;
64653;SDS011;51065;48.884;12.598;2022-12-07T02:33:03;10.23;;;4.28;;
64653;SDS011;51065;48.884;12.598;2022-12-07T02:35:34;9.65;;;3.85;;
64653;SDS011;51065;48.884;12.598;2022-12-07T02:38:20;9.70;;;3.92;;
64653;SDS011;51065;48.884;12.598;2022-12-07T02:41:16;10.55;;;3.85;;
64653;SDS011;51065;48.884;12.598;2022-12-07T02:43:53;10.82;;;4.57;;
64653;SDS011;51065;48.884;12.598;2022-12-07T02:46:23;10.38;;;3.67;;
64653;SDS011;51065;48.884;12.598;2022-12-07T02:48:52;8.77;;;3.72;;
64653;SDS011;51065;48.884;12.598;2022-12-07T02:51:19;9.02;;;3.72;;
64653;SDS011;51065;48.884;12.598;2022-12-07T02:53:46;7.70;;;3.60;;
64653;SDS011;51065;48.884;12.598;2022-12-07T02:56:24;9.80;;;3.67;;
64653;SDS011;51065;48.884;12.598;2022-12-07T03:07:34;10.90;;;4.25;;
64653;SDS011;51065;48.884;12.598;2022-12-07T03:13:22;11.23;;;4.78;;
64653;SDS011;51065;48.884;12.598;2022-12-07T03:15:59;11.70;;;4.22;;
64653;SDS011;51065;48.884;12.598;2022-12-07T03:18:55;9.98;;;3.63;;
64653;SDS011;51065;48.884;12.598;2022-12-07T03:21:28;10.75;;;4.00;;
64653;SDS011;51065;48.884;12.598;2022-12-07T03:23:59;9.43;;;3.80;;
64653;SDS011;51065;48.884;12.598;2022-12-07T03:26:30;9.85;;;3.70;;
64653;SDS011;51065;48.884;12.598;2022-12-07T03:29:01;12.63;;;4.60;;
64653;SDS011;51065;48.884;12.598;2022-12-07T03:31:33;10.18;;;3.72;;
64653;SDS011;51065;48.884;12.598;2022-12-07T03:34:06;9.63;;;3.65;;
64653;SDS011;51065;48.884;12.598;2022-12-07T03:36:51;11.02;;;3.90;;
64653;SDS011;51065;48.884;12.598;2022-12-07T03:39:24;10.75;;;4.10;;
64653;SDS011;51065;48.884;12.598;2022-12-07T03:41:51;9.98;;;3.85;;
64653;SDS011;51065;48.884;12.598;2022-12-07T03:44:17;7.43;;;3.55;;
64653;SDS011;51065;48.884;12.598;2022-12-07T03:49:55;9.63;;;3.90;;
64653;SDS011;51065;48.884;12.598;2022-12-07T03:55:09;8.88;;;4.20;;
64653;SDS011;51065;48.884;12.598;2022-12-07T03:57:41;12.20;;;4.43;;
64653;SDS011;51065;48.884;12.598;2022-12-07T04:00:08;11.77;;;4.45;;
64653;SDS011;51065;48.884;12.598;2022-12-07T04:02:35;11.13;;;4.20;;
64653;SDS011;51065;48.884;12.598;2022-12-07T04:05:01;11.98;;;4.35;;
64653;SDS011;51065;48.884;12.598;2022-12-07T04:07:28;9.40;;;4.10;;
64653;SDS011;51065;48.884;12.598;2022-12-07T04:09:53;11.50;;;4.22;;
64653;SDS011;51065;48.884;12.598;2022-12-07T04:12:20;10.43;;;4.32;;
64653;SDS011;51065;48.884;12.598;2022-12-07T04:14:46;10.30;;;4.03;;
64653;SDS011;51065;48.884;12.598;2022-12-07T04:17:11;9.48;;;4.20;;
64653;SDS011;51065;48.884;12.598;2022-12-07T04:19:37;10.57;;;3.67;;
64653;SDS011;51065;48.884;12.598;2022-12-07T04:22:05;9.38;;;3.78;;
64653;SDS011;51065;48.884;12.598;2022-12-07T04:24:32;11.02;;;4.50;;
64653;SDS011;51065;48.884;12.598;2022-12-07T04:26:58;9.15;;;3.58;;
64653;SDS011;51065;48.884;12.598;2022-12-07T04:29:24;12.50;;;4.00;;
64653;SDS011;51065;48.884;12.598;2022-12-07T04:31:50;10.35;;;3.78;;
64653;SDS011;51065;48.884;12.598;2022-12-07T04:34:16;9.13;;;3.58;;
64653;SDS011;51065;48.884;12.598;2022-12-07T04:36:42;9.73;;;3.80;;
64653;SDS011;51065;48.884;12.598;2022-12-07T04:39:13;10.90;;;3.75;;
64653;SDS011;51065;48.884;12.598;2022-12-07T04:41:49;9.63;;;3.67;;
64653;SDS011;51065;48.884;12.598;2022-12-07T04:44:15;10.98;;;4.43;;
64653;SDS011;51065;48.884;12.598;2022-12-07T04:46:42;11.18;;;4.35;;
64653;SDS011;51065;48.884;12.598;2022-12-07T04:49:08;14.85;;;4.70;;
64653;SDS011;51065;48.884;12.598;2022-12-07T04:51:34;12.40;;;4.18;;
64653;SDS011;51065;48.884;12.598;2022-12-07T04:54:00;10.98;;;4.25;;
64653;SDS011;51065;48.884;12.598;2022-12-07T04:56:26;12.93;;;4.72;;
64653;SDS011;51065;48.884;12.598;2022-12-07T04:58:52;12.63;;;4.82;;
64653;SDS011;51065;48.884;12.598;2022-12-07T05:01:19;13.88;;;4.47;;
64653;SDS011;51065;48.884;12.598;2022-12-07T05:03:45;11.82;;;4.40;;
64653;SDS011;51065;48.884;12.598;2022-12-07T05:06:11;12.73;;;4.70;;
64653;SDS011;51065;48.884;12.598;2022-12-07T05:08:37;12.07;;;4.72;;
64653;SDS011;51065;48.884;12.598;2022-12-07T05:11:03;11.73;;;4.85;;
64653;SDS011;51065;48.884;12.598;2022-12-07T05:13:30;13.07;;;5.00;;
64653;SDS011;51065;48.884;12.598;2022-12-07T05:15:56;11.80;;;4.55;;
64653;SDS011;51065;48.884;12.598;2022-12-07T05:18:22;12.85;;;4.90;;
64653;SDS011;51065;48.884;12.598;2022-12-07T05:20:47;13.55;;;4.55;;
64653;SDS011;51065;48.884;12.598;2022-12-07T05:23:13;13.48;;;4.93;;
64653;SDS011;51065;48.884;12.598;2022-12-07T05:25:39;14.68;;;5.05;;
64653;SDS011;51065;48.884;12.598;2022-12-07T05:28:05;13.15;;;4.90;;
64653;SDS011;51065;48.884;12.598;2022-12-07T05:30:31;11.65;;;4.90;;
64653;SDS011;51065;48.884;12.598;2022-12-07T05:32:57;12.63;;;5.10;;
64653;SDS011;51065;48.884;12.598;2022-12-07T05:35:23;13.63;;;4.75;;
64653;SDS011;51065;48.884;12.598;2022-12-07T05:37:48;11.35;;;5.03;;
64653;SDS011;51065;48.884;12.598;2022-12-07T05:40:14;14.63;;;5.43;;
64653;SDS011;51065;48.884;12.598;2022-12-07T05:42:41;12.45;;;4.93;;
64653;SDS011;51065;48.884;12.598;2022-12-07T05:45:07;12.82;;;4.80;;
64653;SDS011;51065;48.884;12.598;2022-12-07T05:47:33;13.45;;;5.30;;
64653;SDS011;51065;48.884;12.598;2022-12-07T05:49:59;13.77;;;5.07;;
64653;SDS011;51065;48.884;12.598;2022-12-07T05:52:25;16.25;;;6.03;;
64653;SDS011;51065;48.884;12.598;2022-12-07T05:54:50;15.85;;;6.18;;
64653;SDS011;51065;48.884;12.598;2022-12-07T05:57:16;15.57;;;5.88;;
64653;SDS011;51065;48.884;12.598;2022-12-07T05:59:42;15.30;;;4.93;;
64653;SDS011;51065;48.884;12.598;2022-12-07T06:02:09;16.27;;;5.65;;
64653;SDS011;51065;48.884;12.598;2022-12-07T06:04:37;14.93;;;5.97;;
64653;SDS011;51065;48.884;12.598;2022-12-07T06:07:05;14.38;;;6.45;;
64653;SDS011;51065;48.884;12.598;2022-12-07T06:09:31;15.50;;;5.95;;
64653;SDS011;51065;48.884;12.598;2022-12-07T06:11:57;14.80;;;5.95;;
64653;SDS011;51065;48.884;12.598;2022-12-07T06:14:42;16.65;;;6.38;;
64653;SDS011;51065;48.884;12.598;2022-12-07T06:17:08;15.35;;;5.82;;
64653;SDS011;51065;48.884;12.598;2022-12-07T06:19:34;13.90;;;6.03;;
64653;SDS011;51065;48.884;12.598;2022-12-07T06:22:00;17.13;;;6.93;;
64653;SDS011;51065;48.884;12.598;2022-12-07T06:24:26;16.55;;;6.97;;
64653;SDS011;51065;48.884;12.598;2022-12-07T06:26:52;17.23;;;6.53;;
64653;SDS011;51065;48.884;12.598;2022-12-07T06:29:17;16.58;;;6.63;;
64653;SDS011;51065;48.884;12.598;2022-12-07T06:31:44;17.77;;;6.75;;
64653;SDS011;51065;48.884;12.598;2022-12-07T06:34:11;17.73;;;7.07;;
64653;SDS011;51065;48.884;12.598;2022-12-07T06:36:38;16.92;;;6.72;;
64653;SDS011;51065;48.884;12.598;2022-12-07T06:39:05;18.80;;;7.68;;
64653;SDS011;51065;48.884;12.598;2022-12-07T06:41:31;18.10;;;7.45;;
64653;SDS011;51065;48.884;12.598;2022-12-07T06:43:57;17.83;;;6.60;;
64653;SDS011;51065;48.884;12.598;2022-12-07T06:46:22;17.92;;;7.18;;
64653;SDS011;51065;48.884;12.598;2022-12-07T06:48:49;18.40;;;7.13;;
64653;SDS011;51065;48.884;12.598;2022-12-07T06:51:14;18.35;;;7.60;;
64653;SDS011;51065;48.884;12.598;2022-12-07T06:53:40;15.45;;;6.22;;
64653;SDS011;51065;48.884;12.598;2022-12-07T06:56:06;18.63;;;7.05;;
64653;SDS011;51065;48.884;12.598;2022-12-07T06:58:32;15.85;;;6.78;;
64653;SDS011;51065;48.884;12.598;2022-12-07T07:00:57;16.33;;;6.40;;
64653;SDS011;51065;48.884;12.598;2022-12-07T07:03:23;17.27;;;6.25;;
64653;SDS011;51065;48.884;12.598;2022-12-07T07:05:48;16.83;;;6.40;;
64653;SDS011;51065;48.884;12.598;2022-12-07T07:08:14;17.17;;;6.38;;
64653;SDS011;51065;48.884;12.598;2022-12-07T07:10:40;16.70;;;6.32;;
64653;SDS011;51065;48.884;12.598;2022-12-07T07:13:06;17.33;;;6.40;;
64653;SDS011;51065;48.884;12.598;2022-12-07T07:15:33;17.92;;;6.78;;
64653;SDS011;51065;48.884;12.598;2022-12-07T07:17:59;17.40;;;7.50;;
64653;SDS011;51065;48.884;12.598;2022-12-07T07:20:25;17.15;;;6.93;;
64653;SDS011;51065;48.884;12.598;2022-12-07T07:22:53;16.70;;;6.57;;
64653;SDS011;51065;48.884;12.598;2022-12-07T07:25:19;16.92;;;6.60;;
64653;SDS011;51065;48.884;12.598;2022-12-07T07:27:45;17.08;;;7.05;;
64653;SDS011;51065;48.884;12.598;2022-12-07T07:30:11;16.52;;;6.45;;
64653;SDS011;51065;48.884;12.598;2022-12-07T07:32:36;18.65;;;7.35;;
64653;SDS011;51065;48.884;12.598;2022-12-07T07:35:02;19.38;;;7.35;;
64653;SDS011;51065;48.884;12.598;2022-12-07T07:37:28;16.08;;;6.38;;
64653;SDS011;51065;48.884;12.598;2022-12-07T07:39:54;16.73;;;6.78;;
64653;SDS011;51065;48.884;12.598;2022-12-07T07:42:19;17.05;;;6.88;;
64653;SDS011;51065;48.884;12.598;2022-12-07T07:44:45;18.10;;;6.70;;
64653;SDS011;51065;48.884;12.598;2022-12-07T07:47:10;17.33;;;7.00;;
64653;SDS011;51065;48.884;12.598;2022-12-07T07:49:36;17.02;;;6.90;;
64653;SDS011;51065;48.884;12.598;2022-12-07T07:52:02;18.90;;;7.53;;
64653;SDS011;51065;48.884;12.598;2022-12-07T07:54:28;16.20;;;6.20;;
64653;SDS011;51065;48.884;12.598;2022-12-07T07:56:53;18.25;;;6.78;;
64653;SDS011;51065;48.884;12.598;2022-12-07T07:59:19;18.52;;;7.10;;
64653;SDS011;51065;48.884;12.598;2022-12-07T08:01:44;18.23;;;7.28;;
64653;SDS011;51065;48.884;12.598;2022-12-07T08:04:10;17.25;;;6.60;;
64653;SDS011;51065;48.884;12.598;2022-12-07T08:06:36;18.55;;;7.43;;
64653;SDS011;51065;48.884;12.598;2022-12-07T08:09:01;17.45;;;6.90;;
64653;SDS011;51065;48.884;12.598;2022-12-07T08:11:27;17.55;;;7.00;;
64653;SDS011;51065;48.884;12.598;2022-12-07T08:13:53;16.13;;;6.57;;
64653;SDS011;51065;48.884;12.598;2022-12-07T08:16:19;17.08;;;6.72;;
64653;SDS011;51065;48.884;12.598;2022-12-07T08:18:44;17.05;;;6.95;;
64653;SDS011;51065;48.884;12.598;2022-12-07T08:21:11;18.08;;;6.65;;
64653;SDS011;51065;48.884;12.598;2022-12-07T08:23:39;15.52;;;5.90;;
64653;SDS011;51065;48.884;12.598;2022-12-07T08:26:15;15.48;;;7.35;;
64653;SDS011;51065;48.884;12.598;2022-12-07T08:28:41;19.65;;;6.15;;
64653;SDS011;51065;48.884;12.598;2022-12-07T08:31:09;18.48;;;7.15;;
64653;SDS011;51065;48.884;12.598;2022-12-07T08:33:37;15.67;;;6.80;;
64653;SDS011;51065;48.884;12.598;2022-12-07T08:36:07;16.73;;;6.78;;
64653;SDS011;51065;48.884;12.598;2022-12-07T08:38:35;22.90;;;7.45;;
64653;SDS011;51065;48.884;12.598;2022-12-07T08:41:02;17.95;;;7.13;;
64653;SDS011;51065;48.884;12.598;2022-12-07T08:43:28;19.65;;;7.10;;
64653;SDS011;51065;48.884;12.598;2022-12-07T08:46:05;15.45;;;6.13;;
64653;SDS011;51065;48.884;12.598;2022-12-07T08:48:35;16.85;;;6.97;;
64653;SDS011;51065;48.884;12.598;2022-12-07T08:53:31;18.10;;;6.70;;
64653;SDS011;51065;48.884;12.598;2022-12-07T08:55:59;17.05;;;6.47;;
64653;SDS011;51065;48.884;12.598;2022-12-07T08:58:25;16.60;;;6.03;;
64653;SDS011;51065;48.884;12.598;2022-12-07T09:00:51;18.50;;;6.60;;
64653;SDS011;51065;48.884;12.598;2022-12-07T09:03:16;17.20;;;7.10;;
64653;SDS011;51065;48.884;12.598;2022-12-07T09:05:42;14.95;;;5.95;;
64653;SDS011;51065;48.884;12.598;2022-12-07T09:08:08;18.08;;;7.13;;
64653;SDS011;51065;48.884;12.598;2022-12-07T09:10:33;15.25;;;6.53;;
64653;SDS011;51065;48.884;12.598;2022-12-07T09:12:59;16.40;;;6.78;;
64653;SDS011;51065;48.884;12.598;2022-12-07T09:15:26;16.17;;;6.53;;
64653;SDS011;51065;48.884;12.598;2022-12-07T09:17:54;15.90;;;6.15;;
64653;SDS011;51065;48.884;12.598;2022-12-07T09:20:20;18.10;;;6.63;;
64653;SDS011;51065;48.884;12.598;2022-12-07T09:22:46;19.83;;;6.65;;
64653;SDS011;51065;48.884;12.598;2022-12-07T09:25:12;14.63;;;6.15;;
64653;SDS011;51065;48.884;12.598;2022-12-07T09:27:38;11.82;;;5.07;;
64653;SDS011;51065;48.884;12.598;2022-12-07T09:30:04;15.70;;;6.05;;
64653;SDS011;51065;48.884;12.598;2022-12-07T09:32:30;16.73;;;6.30;;
64653;SDS011;51065;48.884;12.598;2022-12-07T09:34:56;16.83;;;6.22;;
64653;SDS011;51065;48.884;12.598;2022-12-07T09:37:21;17.63;;;7.45;;
64653;SDS011;51065;48.884;12.598;2022-12-07T09:39:47;15.35;;;6.45;;
64653;SDS011;51065;48.884;12.598;2022-12-07T09:42:21;16.15;;;6.43;;
64653;SDS011;51065;48.884;12.598;2022-12-07T09:45:05;14.93;;;6.53;;
64653;SDS011;51065;48.884;12.598;2022-12-07T09:47:37;18.08;;;6.85;;
64653;SDS011;51065;48.884;12.598;2022-12-07T09:50:03;14.85;;;6.80;;
64653;SDS011;51065;48.884;12.598;2022-12-07T09:52:32;15.50;;;6.05;;
64653;SDS011;51065;48.884;12.598;2022-12-07T09:54:58;15.30;;;6.68;;
64653;SDS011;51065;48.884;12.598;2022-12-07T09:57:27;15.70;;;6.40;;
64653;SDS011;51065;48.884;12.598;2022-12-07T09:59:57;16.42;;;6.38;;
64653;SDS011;51065;48.884;12.598;2022-12-07T10:05:07;16.77;;;6.95;;
64653;SDS011;51065;48.884;12.598;2022-12-07T10:07:38;17.33;;;7.32;;
64653;SDS011;51065;48.884;12.598;2022-12-07T10:10:04;16.65;;;7.38;;
64653;SDS011;51065;48.884;12.598;2022-12-07T10:12:54;16.40;;;7.03;;
64653;SDS011;51065;48.884;12.598;2022-12-07T10:15:22;18.05;;;6.53;;
64653;SDS011;51065;48.884;12.598;2022-12-07T10:17:49;16.02;;;6.15;;
64653;SDS011;51065;48.884;12.598;2022-12-07T10:20:23;17.13;;;6.28;;
64653;SDS011;51065;48.884;12.598;2022-12-07T10:25:29;13.07;;;5.93;;
64653;SDS011;51065;48.884;12.598;2022-12-07T10:30:33;17.17;;;5.93;;
64653;SDS011;51065;48.884;12.598;2022-12-07T10:33:33;14.93;;;5.07;;
64653;SDS011;51065;48.884;12.598;2022-12-07T10:36:37;14.90;;;5.32;;
64653;SDS011;51065;48.884;12.598;2022-12-07T10:42:05;17.13;;;5.95;;
64653;SDS011;51065;48.884;12.598;2022-12-07T10:44:31;15.70;;;5.22;;
64653;SDS011;51065;48.884;12.598;2022-12-07T10:55:18;14.95;;;5.25;;
64653;SDS011;51065;48.884;12.598;2022-12-07T10:57:59;14.10;;;5.85;;
64653;SDS011;51065;48.884;12.598;2022-12-07T11:00:41;15.63;;;5.18;;
64653;SDS011;51065;48.884;12.598;2022-12-07T11:11:56;13.20;;;5.03;;
64653;SDS011;51065;48.884;12.598;2022-12-07T11:16:50;14.55;;;4.88;;
64653;SDS011;51065;48.884;12.598;2022-12-07T11:19:28;13.60;;;4.82;;
64653;SDS011;51065;48.884;12.598;2022-12-07T11:25:02;14.30;;;5.30;;
64653;SDS011;51065;48.884;12.598;2022-12-07T11:27:46;12.02;;;4.35;;
64653;SDS011;51065;48.884;12.598;2022-12-07T11:35:37;12.25;;;4.78;;
64653;SDS011;51065;48.884;12.598;2022-12-07T11:38:35;14.38;;;4.18;;
64653;SDS011;51065;48.884;12.598;2022-12-07T11:41:12;15.30;;;4.75;;
64653;SDS011;51065;48.884;12.598;2022-12-07T11:43:42;13.05;;;4.55;;
64653;SDS011;51065;48.884;12.598;2022-12-07T11:46:27;14.55;;;5.10;;
64653;SDS011;51065;48.884;12.598;2022-12-07T11:49:10;15.57;;;5.03;;
64653;SDS011;51065;48.884;12.598;2022-12-07T11:51:45;16.17;;;5.75;;
64653;SDS011;51065;48.884;12.598;2022-12-07T11:54:23;15.45;;;5.15;;
64653;SDS011;51065;48.884;12.598;2022-12-07T11:59:30;13.18;;;4.65;;
64653;SDS011;51065;48.884;12.598;2022-12-07T12:02:12;13.32;;;4.55;;
64653;SDS011;51065;48.884;12.598;2022-12-07T12:04:58;14.90;;;5.00;;
64653;SDS011;51065;48.884;12.598;2022-12-07T12:07:24;21.88;;;4.45;;
64653;SDS011;51065;48.884;12.598;2022-12-07T12:12:36;18.52;;;4.90;;
64653;SDS011;51065;48.884;12.598;2022-12-07T12:18:38;17.38;;;5.47;;
64653;SDS011;51065;48.884;12.598;2022-12-07T12:21:27;16.83;;;5.47;;
64653;SDS011;51065;48.884;12.598;2022-12-07T12:27:02;18.02;;;5.22;;
64653;SDS011;51065;48.884;12.598;2022-12-07T12:29:41;15.40;;;5.18;;
64653;SDS011;51065;48.884;12.598;2022-12-07T12:37:45;15.38;;;5.43;;
64653;SDS011;51065;48.884;12.598;2022-12-07T12:40:34;14.80;;;5.65;;
64653;SDS011;51065;48.884;12.598;2022-12-07T12:42:57;14.25;;;4.75;;
64653;SDS011;51065;48.884;12.598;2022-12-07T12:45:24;13.95;;;5.53;;
64653;SDS011;51065;48.884;12.598;2022-12-07T12:47:58;15.13;;;5.20;;
64653;SDS011;51065;48.884;12.598;2022-12-07T12:55:29;15.55;;;5.03;;
64653;SDS011;51065;48.884;12.598;2022-12-07T13:00:43;18.10;;;5.55;;
64653;SDS011;51065;48.884;12.598;2022-12-07T13:08:52;14.93;;;5.95;;
64653;SDS011;51065;48.884;12.598;2022-12-07T13:11:37;13.98;;;5.00;;
64653;SDS011;51065;48.884;12.598;2022-12-07T13:14:52;17.15;;;5.38;;
64653;SDS011;51065;48.884;12.598;2022-12-07T13:17:00;17.70;;;4.82;;
64653;SDS011;51065;48.884;12.598;2022-12-07T13:19:48;13.15;;;4.60;;
64653;SDS011;51065;48.884;12.598;2022-12-07T13:25:18;16.70;;;4.80;;
64653;SDS011;51065;48.884;12.598;2022-12-07T13:28:09;12.00;;;4.45;;
64653;SDS011;51065;48.884;12.598;2022-12-07T13:30:45;14.15;;;5.63;;
64653;SDS011;51065;48.884;12.598;2022-12-07T13:33:28;12.93;;;4.28;;
64653;SDS011;51065;48.884;12.598;2022-12-07T13:35:54;14.10;;;5.57;;
64653;SDS011;51065;48.884;12.598;2022-12-07T13:49:29;13.88;;;4.50;;
64653;SDS011;51065;48.884;12.598;2022-12-07T13:52:13;11.48;;;4.13;;
64653;SDS011;51065;48.884;12.598;2022-12-07T13:54:46;11.80;;;4.03;;
64653;SDS011;51065;48.884;12.598;2022-12-07T13:57:15;12.68;;;3.88;;
64653;SDS011;51065;48.884;12.598;2022-12-07T13:59:41;11.18;;;4.35;;
64653;SDS011;51065;48.884;12.598;2022-12-07T14:02:26;14.35;;;4.45;;
64653;SDS011;51065;48.884;12.598;2022-12-07T14:05:10;13.00;;;4.50;;
64653;SDS011;51065;48.884;12.598;2022-12-07T14:08:40;13.57;;;4.55;;
64653;SDS011;51065;48.884;12.598;2022-12-07T14:10:38;12.25;;;4.30;;
64653;SDS011;51065;48.884;12.598;2022-12-07T14:13:35;13.75;;;5.25;;
64653;SDS011;51065;48.884;12.598;2022-12-07T14:18:49;13.73;;;4.72;;
64653;SDS011;51065;48.884;12.598;2022-12-07T14:21:22;13.55;;;5.15;;
64653;SDS011;51065;48.884;12.598;2022-12-07T14:26:32;12.32;;;4.10;;
64653;SDS011;51065;48.884;12.598;2022-12-07T14:31:45;14.73;;;4.75;;
64653;SDS011;51065;48.884;12.598;2022-12-07T14:34:11;14.35;;;4.65;;
64653;SDS011;51065;48.884;12.598;2022-12-07T14:36:37;12.45;;;4.65;;
64653;SDS011;51065;48.884;12.598;2022-12-07T14:39:03;16.40;;;4.85;;
64653;SDS011;51065;48.884;12.598;2022-12-07T14:41:28;14.93;;;4.93;;
64653;SDS011;51065;48.884;12.598;2022-12-07T14:44:12;15.68;;;5.00;;
64653;SDS011;51065;48.884;12.598;2022-12-07T14:46:38;13.85;;;4.80;;
64653;SDS011;51065;48.884;12.598;2022-12-07T14:49:04;13.95;;;4.78;;
64653;SDS011;51065;48.884;12.598;2022-12-07T14:51:30;14.32;;;5.15;;
64653;SDS011;51065;48.884;12.598;2022-12-07T14:53:57;12.27;;;4.45;;
64653;SDS011;51065;48.884;12.598;2022-12-07T14:56:22;9.90;;;4.10;;
64653;SDS011;51065;48.884;12.598;2022-12-07T14:58:48;12.38;;;4.50;;
64653;SDS011;51065;48.884;12.598;2022-12-07T15:01:14;13.07;;;4.55;;
64653;SDS011;51065;48.884;12.598;2022-12-07T15:03:39;14.02;;;4.30;;
64653;SDS011;51065;48.884;12.598;2022-12-07T15:06:05;11.88;;;4.90;;
64653;SDS011;51065;48.884;12.598;2022-12-07T15:08:31;13.27;;;4.22;;
64653;SDS011;51065;48.884;12.598;2022-12-07T15:10:57;17.73;;;4.32;;
64653;SDS011;51065;48.884;12.598;2022-12-07T15:13:23;12.52;;;4.65;;
64653;SDS011;51065;48.884;12.598;2022-12-07T15:16:08;16.52;;;5.10;;
64653;SDS011;51065;48.884;12.598;2022-12-07T15:18:36;17.23;;;4.80;;
64653;SDS011;51065;48.884;12.598;2022-12-07T15:21:02;14.68;;;5.60;;
64653;SDS011;51065;48.884;12.598;2022-12-07T15:23:27;14.80;;;4.93;;
64653;SDS011;51065;48.884;12.598;2022-12-07T15:25:53;13.68;;;5.07;;
64653;SDS011;51065;48.884;12.598;2022-12-07T15:28:18;14.80;;;5.53;;
64653;SDS011;51065;48.884;12.598;2022-12-07T15:30:44;13.45;;;5.22;;
64653;SDS011;51065;48.884;12.598;2022-12-07T15:33:10;14.02;;;5.25;;
64653;SDS011;51065;48.884;12.598;2022-12-07T15:35:40;14.98;;;4.93;;
64653;SDS011;51065;48.884;12.598;2022-12-07T15:38:06;16.33;;;5.72;;
64653;SDS011;51065;48.884;12.598;2022-12-07T15:40:33;15.85;;;5.53;;
64653;SDS011;51065;48.884;12.598;2022-12-07T15:42:59;16.85;;;5.40;;
64653;SDS011;51065;48.884;12.598;2022-12-07T15:45:24;18.75;;;6.50;;
64653;SDS011;51065;48.884;12.598;2022-12-07T15:47:50;17.63;;;5.80;;
64653;SDS011;51065;48.884;12.598;2022-12-07T15:50:15;13.27;;;4.68;;
64653;SDS011;51065;48.884;12.598;2022-12-07T15:52:42;14.45;;;4.75;;
64653;SDS011;51065;48.884;12.598;2022-12-07T15:55:08;13.48;;;5.03;;
64653;SDS011;51065;48.884;12.598;2022-12-07T15:57:35;16.65;;;5.72;;
64653;SDS011;51065;48.884;12.598;2022-12-07T16:00:02;16.55;;;6.00;;
64653;SDS011;51065;48.884;12.598;2022-12-07T16:02:29;14.43;;;4.97;;
64653;SDS011;51065;48.884;12.598;2022-12-07T16:04:55;17.83;;;5.80;;
64653;SDS011;51065;48.884;12.598;2022-12-07T16:07:20;13.82;;;5.53;;
64653;SDS011;51065;48.884;12.598;2022-12-07T16:09:46;16.98;;;5.80;;
64653;SDS011;51065;48.884;12.598;2022-12-07T16:12:13;15.07;;;5.82;;
64653;SDS011;51065;48.884;12.598;2022-12-07T16:14:39;16.00;;;5.63;;
64653;SDS011;51065;48.884;12.598;2022-12-07T16:17:05;13.55;;;5.60;;
64653;SDS011;51065;48.884;12.598;2022-12-07T16:19:32;15.60;;;5.50;;
64653;SDS011;51065;48.884;12.598;2022-12-07T16:21:58;15.65;;;5.63;;
64653;SDS011;51065;48.884;12.598;2022-12-07T16:24:24;18.67;;;6.22;;
64653;SDS011;51065;48.884;12.598;2022-12-07T16:26:50;15.70;;;6.53;;
64653;SDS011;51065;48.884;12.598;2022-12-07T16:29:17;19.73;;;7.00;;
64653;SDS011;51065;48.884;12.598;2022-12-07T16:31:44;16.70;;;5.75;;
64653;SDS011;51065;48.884;12.598;2022-12-07T16:34:10;17.38;;;6.25;;
64653;SDS011;51065;48.884;12.598;2022-12-07T16:36:36;18.52;;;5.75;;